sensor_id;sensor_type;location;lat;lon;timestamp;P1;durP1;ratioP1;P2;durP2;ratioP2
142;SDS011;63667;49.046;8.468;2023-02-28T00:01:53;13.40;;;7.67;;
142;SDS011;63667;49.046;8.468;2023-02-28T00:04:20;11.93;;;6.77;;
142;SDS011;63667;49.046;8.468;2023-02-28T00:06:46;11.73;;;7.07;;
142;SDS011;63667;49.046;8.468;2023-02-28T00:09:14;16.23;;;7.37;;
142;SDS011;63667;49.046;8.468;2023-02-28T00:11:42;13.90;;;6.97;;
142;SDS011;63667;49.046;8.468;2023-02-28T00:14:09;12.13;;;7.30;;
142;SDS011;63667;49.046;8.468;2023-02-28T00:16:37;14.00;;;7.30;;
142;SDS011;63667;49.046;8.468;2023-02-28T00:19:04;14.20;;;7.67;;
142;SDS011;63667;49.046;8.468;2023-02-28T00:21:32;18.80;;;8.13;;
142;SDS011;63667;49.046;8.468;2023-02-28T00:24:01;10.27;;;6.43;;
142;SDS011;63667;49.046;8.468;2023-02-28T00:26:28;17.50;;;8.00;;
142;SDS011;63667;49.046;8.468;2023-02-28T00:28:56;18.43;;;8.53;;
142;SDS011;63667;49.046;8.468;2023-02-28T00:31:23;12.97;;;7.60;;
142;SDS011;63667;49.046;8.468;2023-02-28T00:33:50;14.27;;;7.97;;
142;SDS011;63667;49.046;8.468;2023-02-28T00:36:18;14.93;;;7.33;;
142;SDS011;63667;49.046;8.468;2023-02-28T00:38:46;14.20;;;7.77;;
142;SDS011;63667;49.046;8.468;2023-02-28T00:41:13;13.27;;;7.33;;
142;SDS011;63667;49.046;8.468;2023-02-28T00:43:41;10.93;;;6.43;;
142;SDS011;63667;49.046;8.468;2023-02-28T00:46:08;12.80;;;6.33;;
142;SDS011;63667;49.046;8.468;2023-02-28T00:48:36;12.03;;;7.30;;
142;SDS011;63667;49.046;8.468;2023-02-28T00:51:04;11.20;;;7.60;;
142;SDS011;63667;49.046;8.468;2023-02-28T00:53:31;14.63;;;7.10;;
142;SDS011;63667;49.046;8.468;2023-02-28T00:56:02;12.33;;;7.07;;
142;SDS011;63667;49.046;8.468;2023-02-28T00:58:29;11.60;;;6.77;;
142;SDS011;63667;49.046;8.468;2023-02-28T01:00:57;12.50;;;7.63;;
142;SDS011;63667;49.046;8.468;2023-02-28T01:03:24;14.30;;;6.67;;
142;SDS011;63667;49.046;8.468;2023-02-28T01:05:51;16.00;;;6.90;;
142;SDS011;63667;49.046;8.468;2023-02-28T01:08:21;13.80;;;6.90;;
142;SDS011;63667;49.046;8.468;2023-02-28T01:10:49;13.00;;;6.77;;
142;SDS011;63667;49.046;8.468;2023-02-28T01:13:16;12.57;;;7.40;;
142;SDS011;63667;49.046;8.468;2023-02-28T01:15:44;11.80;;;6.90;;
142;SDS011;63667;49.046;8.468;2023-02-28T01:18:12;11.40;;;6.50;;
142;SDS011;63667;49.046;8.468;2023-02-28T01:20:39;12.20;;;6.97;;
142;SDS011;63667;49.046;8.468;2023-02-28T01:23:07;13.67;;;7.10;;
142;SDS011;63667;49.046;8.468;2023-02-28T01:25:35;10.30;;;6.30;;
142;SDS011;63667;49.046;8.468;2023-02-28T01:28:02;13.00;;;7.20;;
142;SDS011;63667;49.046;8.468;2023-02-28T01:30:31;14.23;;;7.13;;
142;SDS011;63667;49.046;8.468;2023-02-28T01:32:58;13.43;;;6.80;;
142;SDS011;63667;49.046;8.468;2023-02-28T01:35:26;12.77;;;7.17;;
142;SDS011;63667;49.046;8.468;2023-02-28T01:37:53;14.00;;;7.90;;
142;SDS011;63667;49.046;8.468;2023-02-28T01:40:21;14.93;;;7.43;;
142;SDS011;63667;49.046;8.468;2023-02-28T01:42:49;17.40;;;7.67;;
142;SDS011;63667;49.046;8.468;2023-02-28T01:45:24;13.67;;;7.40;;
142;SDS011;63667;49.046;8.468;2023-02-28T01:47:53;13.97;;;7.30;;
142;SDS011;63667;49.046;8.468;2023-02-28T01:50:23;16.70;;;8.23;;
142;SDS011;63667;49.046;8.468;2023-02-28T01:52:51;15.83;;;7.33;;
142;SDS011;63667;49.046;8.468;2023-02-28T01:55:21;14.23;;;7.07;;
142;SDS011;63667;49.046;8.468;2023-02-28T01:57:52;12.77;;;7.40;;
142;SDS011;63667;49.046;8.468;2023-02-28T02:00:20;12.60;;;6.97;;
142;SDS011;63667;49.046;8.468;2023-02-28T02:02:49;13.83;;;7.10;;
142;SDS011;63667;49.046;8.468;2023-02-28T02:05:19;15.37;;;7.90;;
142;SDS011;63667;49.046;8.468;2023-02-28T02:07:48;16.27;;;7.90;;
142;SDS011;63667;49.046;8.468;2023-02-28T02:10:20;12.80;;;7.70;;
142;SDS011;63667;49.046;8.468;2023-02-28T02:12:57;14.33;;;7.70;;
142;SDS011;63667;49.046;8.468;2023-02-28T02:15:35;12.73;;;7.10;;
142;SDS011;63667;49.046;8.468;2023-02-28T02:18:17;14.20;;;7.80;;
142;SDS011;63667;49.046;8.468;2023-02-28T02:39:12;12.83;;;7.30;;
142;SDS011;63667;49.046;8.468;2023-02-28T02:41:42;14.67;;;8.00;;
142;SDS011;63667;49.046;8.468;2023-02-28T02:44:14;14.97;;;7.83;;
142;SDS011;63667;49.046;8.468;2023-02-28T02:46:44;15.63;;;8.27;;
142;SDS011;63667;49.046;8.468;2023-02-28T02:49:30;15.83;;;7.27;;
142;SDS011;63667;49.046;8.468;2023-02-28T02:52:00;12.40;;;7.50;;
142;SDS011;63667;49.046;8.468;2023-02-28T02:54:29;13.60;;;7.70;;
142;SDS011;63667;49.046;8.468;2023-02-28T02:56:58;18.97;;;9.07;;
142;SDS011;63667;49.046;8.468;2023-02-28T02:59:25;15.00;;;8.13;;
142;SDS011;63667;49.046;8.468;2023-02-28T03:01:58;15.90;;;7.80;;
142;SDS011;63667;49.046;8.468;2023-02-28T03:04:27;15.87;;;8.00;;
142;SDS011;63667;49.046;8.468;2023-02-28T03:06:56;14.47;;;7.00;;
142;SDS011;63667;49.046;8.468;2023-02-28T03:09:24;14.67;;;7.77;;
142;SDS011;63667;49.046;8.468;2023-02-28T03:11:52;16.20;;;8.10;;
142;SDS011;63667;49.046;8.468;2023-02-28T03:17:06;15.10;;;8.07;;
142;SDS011;63667;49.046;8.468;2023-02-28T03:27:38;15.77;;;8.10;;
142;SDS011;63667;49.046;8.468;2023-02-28T03:30:14;16.20;;;8.33;;
142;SDS011;63667;49.046;8.468;2023-02-28T03:32:51;15.50;;;7.63;;
142;SDS011;63667;49.046;8.468;2023-02-28T03:35:23;14.77;;;7.97;;
142;SDS011;63667;49.046;8.468;2023-02-28T03:37:53;13.73;;;7.50;;
142;SDS011;63667;49.046;8.468;2023-02-28T03:40:21;16.77;;;8.17;;
142;SDS011;63667;49.046;8.468;2023-02-28T03:42:50;13.67;;;7.50;;
142;SDS011;63667;49.046;8.468;2023-02-28T03:45:22;17.03;;;8.20;;
142;SDS011;63667;49.046;8.468;2023-02-28T03:48:01;16.30;;;7.17;;
142;SDS011;63667;49.046;8.468;2023-02-28T03:50:33;13.17;;;7.60;;
142;SDS011;63667;49.046;8.468;2023-02-28T03:53:05;16.70;;;8.20;;
142;SDS011;63667;49.046;8.468;2023-02-28T03:55:37;18.53;;;9.00;;
142;SDS011;63667;49.046;8.468;2023-02-28T03:58:12;16.73;;;8.57;;
142;SDS011;63667;49.046;8.468;2023-02-28T04:00:56;16.10;;;7.80;;
142;SDS011;63667;49.046;8.468;2023-02-28T04:03:39;14.87;;;8.17;;
142;SDS011;63667;49.046;8.468;2023-02-28T04:06:13;16.70;;;7.77;;
142;SDS011;63667;49.046;8.468;2023-02-28T04:08:41;16.27;;;8.83;;
142;SDS011;63667;49.046;8.468;2023-02-28T04:11:15;14.97;;;8.07;;
142;SDS011;63667;49.046;8.468;2023-02-28T04:13:42;14.90;;;7.90;;
142;SDS011;63667;49.046;8.468;2023-02-28T04:16:09;14.47;;;8.17;;
142;SDS011;63667;49.046;8.468;2023-02-28T04:18:38;18.30;;;8.37;;
142;SDS011;63667;49.046;8.468;2023-02-28T04:21:06;14.03;;;7.00;;
142;SDS011;63667;49.046;8.468;2023-02-28T04:23:33;16.33;;;7.83;;
142;SDS011;63667;49.046;8.468;2023-02-28T04:26:01;18.47;;;8.43;;
142;SDS011;63667;49.046;8.468;2023-02-28T04:28:29;14.80;;;7.47;;
142;SDS011;63667;49.046;8.468;2023-02-28T04:30:57;16.17;;;8.03;;
142;SDS011;63667;49.046;8.468;2023-02-28T04:33:24;17.57;;;8.50;;
142;SDS011;63667;49.046;8.468;2023-02-28T04:36:01;14.63;;;7.43;;
142;SDS011;63667;49.046;8.468;2023-02-28T04:38:44;13.87;;;7.50;;
142;SDS011;63667;49.046;8.468;2023-02-28T04:41:12;14.80;;;8.50;;
142;SDS011;63667;49.046;8.468;2023-02-28T04:43:39;19.63;;;8.27;;
142;SDS011;63667;49.046;8.468;2023-02-28T04:46:07;17.93;;;8.70;;
142;SDS011;63667;49.046;8.468;2023-02-28T04:48:35;18.50;;;8.63;;
142;SDS011;63667;49.046;8.468;2023-02-28T04:51:09;17.60;;;8.73;;
142;SDS011;63667;49.046;8.468;2023-02-28T04:53:37;19.90;;;8.20;;
142;SDS011;63667;49.046;8.468;2023-02-28T04:56:04;14.37;;;7.63;;
142;SDS011;63667;49.046;8.468;2023-02-28T04:58:32;17.80;;;8.23;;
142;SDS011;63667;49.046;8.468;2023-02-28T05:01:04;16.93;;;8.90;;
142;SDS011;63667;49.046;8.468;2023-02-28T05:03:39;18.53;;;8.50;;
142;SDS011;63667;49.046;8.468;2023-02-28T05:06:09;16.90;;;8.43;;
142;SDS011;63667;49.046;8.468;2023-02-28T05:08:36;16.43;;;8.70;;
142;SDS011;63667;49.046;8.468;2023-02-28T05:11:07;19.40;;;8.70;;
142;SDS011;63667;49.046;8.468;2023-02-28T05:13:34;18.53;;;9.00;;
142;SDS011;63667;49.046;8.468;2023-02-28T05:16:01;17.57;;;8.30;;
142;SDS011;63667;49.046;8.468;2023-02-28T05:18:29;18.00;;;9.10;;
142;SDS011;63667;49.046;8.468;2023-02-28T05:20:57;16.53;;;8.50;;
142;SDS011;63667;49.046;8.468;2023-02-28T05:23:24;17.73;;;8.77;;
142;SDS011;63667;49.046;8.468;2023-02-28T05:25:51;19.53;;;9.43;;
142;SDS011;63667;49.046;8.468;2023-02-28T05:28:20;22.60;;;10.33;;
142;SDS011;63667;49.046;8.468;2023-02-28T05:30:47;21.67;;;9.03;;
142;SDS011;63667;49.046;8.468;2023-02-28T05:33:15;17.90;;;9.53;;
142;SDS011;63667;49.046;8.468;2023-02-28T05:35:42;21.50;;;9.23;;
142;SDS011;63667;49.046;8.468;2023-02-28T05:38:11;19.60;;;9.57;;
142;SDS011;63667;49.046;8.468;2023-02-28T05:40:38;19.83;;;8.97;;
142;SDS011;63667;49.046;8.468;2023-02-28T05:43:07;18.87;;;9.43;;
142;SDS011;63667;49.046;8.468;2023-02-28T05:45:35;19.50;;;8.40;;
142;SDS011;63667;49.046;8.468;2023-02-28T05:48:03;17.33;;;8.80;;
142;SDS011;63667;49.046;8.468;2023-02-28T05:50:31;20.27;;;9.23;;
142;SDS011;63667;49.046;8.468;2023-02-28T05:52:58;19.43;;;9.00;;
142;SDS011;63667;49.046;8.468;2023-02-28T05:55:25;15.53;;;7.90;;
142;SDS011;63667;49.046;8.468;2023-02-28T05:57:53;17.00;;;8.77;;
142;SDS011;63667;49.046;8.468;2023-02-28T06:00:20;19.53;;;9.80;;
142;SDS011;63667;49.046;8.468;2023-02-28T06:02:47;20.93;;;9.40;;
142;SDS011;63667;49.046;8.468;2023-02-28T06:05:17;18.17;;;9.53;;
142;SDS011;63667;49.046;8.468;2023-02-28T06:07:43;16.27;;;8.43;;
142;SDS011;63667;49.046;8.468;2023-02-28T06:10:11;20.00;;;9.53;;
142;SDS011;63667;49.046;8.468;2023-02-28T06:12:38;18.70;;;8.77;;
142;SDS011;63667;49.046;8.468;2023-02-28T06:15:05;17.23;;;8.93;;
142;SDS011;63667;49.046;8.468;2023-02-28T06:17:34;17.80;;;8.83;;
142;SDS011;63667;49.046;8.468;2023-02-28T06:20:00;27.00;;;11.50;;
142;SDS011;63667;49.046;8.468;2023-02-28T06:22:27;25.43;;;10.93;;
142;SDS011;63667;49.046;8.468;2023-02-28T06:24:54;21.77;;;10.00;;
142;SDS011;63667;49.046;8.468;2023-02-28T06:27:22;21.13;;;9.37;;
142;SDS011;63667;49.046;8.468;2023-02-28T06:29:53;19.60;;;8.93;;
142;SDS011;63667;49.046;8.468;2023-02-28T06:32:20;18.97;;;9.47;;
142;SDS011;63667;49.046;8.468;2023-02-28T06:34:47;18.27;;;9.37;;
142;SDS011;63667;49.046;8.468;2023-02-28T06:37:16;18.90;;;9.07;;
142;SDS011;63667;49.046;8.468;2023-02-28T06:39:43;22.33;;;9.93;;
142;SDS011;63667;49.046;8.468;2023-02-28T06:42:10;19.83;;;9.13;;
142;SDS011;63667;49.046;8.468;2023-02-28T06:44:36;21.43;;;9.40;;
142;SDS011;63667;49.046;8.468;2023-02-28T06:47:05;17.73;;;9.30;;
142;SDS011;63667;49.046;8.468;2023-02-28T06:49:32;18.63;;;9.00;;
142;SDS011;63667;49.046;8.468;2023-02-28T06:51:59;24.47;;;9.83;;
142;SDS011;63667;49.046;8.468;2023-02-28T06:54:27;19.73;;;8.60;;
142;SDS011;63667;49.046;8.468;2023-02-28T06:56:55;20.60;;;9.63;;
142;SDS011;63667;49.046;8.468;2023-02-28T06:59:21;20.63;;;9.87;;
142;SDS011;63667;49.046;8.468;2023-02-28T07:01:47;21.60;;;10.30;;
142;SDS011;63667;49.046;8.468;2023-02-28T07:04:14;21.13;;;9.50;;
142;SDS011;63667;49.046;8.468;2023-02-28T07:06:40;18.63;;;9.80;;
142;SDS011;63667;49.046;8.468;2023-02-28T07:09:08;21.53;;;9.90;;
142;SDS011;63667;49.046;8.468;2023-02-28T07:11:36;24.03;;;10.67;;
142;SDS011;63667;49.046;8.468;2023-02-28T07:14:03;17.93;;;9.30;;
142;SDS011;63667;49.046;8.468;2023-02-28T07:16:30;21.43;;;9.67;;
142;SDS011;63667;49.046;8.468;2023-02-28T07:18:58;28.23;;;10.33;;
142;SDS011;63667;49.046;8.468;2023-02-28T07:21:25;18.87;;;9.77;;
142;SDS011;63667;49.046;8.468;2023-02-28T07:23:51;19.23;;;10.33;;
142;SDS011;63667;49.046;8.468;2023-02-28T07:26:19;24.77;;;10.27;;
142;SDS011;63667;49.046;8.468;2023-02-28T07:28:47;18.97;;;9.90;;
142;SDS011;63667;49.046;8.468;2023-02-28T07:31:15;21.43;;;9.87;;
142;SDS011;63667;49.046;8.468;2023-02-28T07:33:43;20.70;;;10.30;;
142;SDS011;63667;49.046;8.468;2023-02-28T07:36:12;19.70;;;10.57;;
142;SDS011;63667;49.046;8.468;2023-02-28T07:38:41;21.53;;;11.00;;
142;SDS011;63667;49.046;8.468;2023-02-28T07:41:10;22.47;;;9.90;;
142;SDS011;63667;49.046;8.468;2023-02-28T07:43:38;18.67;;;10.30;;
142;SDS011;63667;49.046;8.468;2023-02-28T07:46:08;21.93;;;10.63;;
142;SDS011;63667;49.046;8.468;2023-02-28T07:48:35;24.27;;;9.90;;
142;SDS011;63667;49.046;8.468;2023-02-28T07:51:03;20.57;;;10.20;;
142;SDS011;63667;49.046;8.468;2023-02-28T07:53:30;23.57;;;9.80;;
142;SDS011;63667;49.046;8.468;2023-02-28T07:55:58;20.27;;;9.77;;
142;SDS011;63667;49.046;8.468;2023-02-28T07:58:26;22.87;;;11.10;;
142;SDS011;63667;49.046;8.468;2023-02-28T08:00:53;19.87;;;9.63;;
142;SDS011;63667;49.046;8.468;2023-02-28T08:03:21;22.90;;;10.87;;
142;SDS011;63667;49.046;8.468;2023-02-28T08:05:49;19.87;;;9.97;;
142;SDS011;63667;49.046;8.468;2023-02-28T08:08:16;19.43;;;10.10;;
142;SDS011;63667;49.046;8.468;2023-02-28T08:10:43;18.83;;;10.60;;
142;SDS011;63667;49.046;8.468;2023-02-28T08:13:10;22.40;;;11.37;;
142;SDS011;63667;49.046;8.468;2023-02-28T08:15:40;22.20;;;10.30;;
142;SDS011;63667;49.046;8.468;2023-02-28T08:18:07;24.43;;;11.10;;
142;SDS011;63667;49.046;8.468;2023-02-28T08:20:35;22.33;;;10.40;;
142;SDS011;63667;49.046;8.468;2023-02-28T08:23:02;25.87;;;10.57;;
142;SDS011;63667;49.046;8.468;2023-02-28T08:25:29;21.33;;;10.63;;
142;SDS011;63667;49.046;8.468;2023-02-28T08:27:57;25.00;;;11.17;;
142;SDS011;63667;49.046;8.468;2023-02-28T08:30:25;27.67;;;11.00;;
142;SDS011;63667;49.046;8.468;2023-02-28T08:32:52;30.50;;;10.93;;
142;SDS011;63667;49.046;8.468;2023-02-28T08:35:21;20.53;;;10.73;;
142;SDS011;63667;49.046;8.468;2023-02-28T08:37:48;19.60;;;9.33;;
142;SDS011;63667;49.046;8.468;2023-02-28T08:40:16;22.37;;;11.17;;
142;SDS011;63667;49.046;8.468;2023-02-28T08:42:47;27.00;;;10.80;;
142;SDS011;63667;49.046;8.468;2023-02-28T08:45:14;19.67;;;9.63;;
142;SDS011;63667;49.046;8.468;2023-02-28T08:47:41;21.20;;;10.70;;
142;SDS011;63667;49.046;8.468;2023-02-28T08:50:09;25.80;;;10.50;;
142;SDS011;63667;49.046;8.468;2023-02-28T08:52:36;22.37;;;10.70;;
142;SDS011;63667;49.046;8.468;2023-02-28T08:55:04;23.83;;;10.67;;
142;SDS011;63667;49.046;8.468;2023-02-28T08:57:32;22.70;;;10.97;;
142;SDS011;63667;49.046;8.468;2023-02-28T09:00:00;24.90;;;11.13;;
142;SDS011;63667;49.046;8.468;2023-02-28T09:02:32;23.77;;;11.20;;
142;SDS011;63667;49.046;8.468;2023-02-28T09:05:00;25.30;;;12.00;;
142;SDS011;63667;49.046;8.468;2023-02-28T09:07:28;22.43;;;10.53;;
142;SDS011;63667;49.046;8.468;2023-02-28T09:09:56;24.37;;;11.10;;
142;SDS011;63667;49.046;8.468;2023-02-28T09:12:24;21.77;;;11.20;;
142;SDS011;63667;49.046;8.468;2023-02-28T09:14:52;28.43;;;11.73;;
142;SDS011;63667;49.046;8.468;2023-02-28T09:17:19;24.50;;;11.50;;
142;SDS011;63667;49.046;8.468;2023-02-28T09:19:48;23.33;;;11.40;;
142;SDS011;63667;49.046;8.468;2023-02-28T09:22:15;22.73;;;10.63;;
142;SDS011;63667;49.046;8.468;2023-02-28T09:24:42;34.33;;;11.77;;
142;SDS011;63667;49.046;8.468;2023-02-28T09:27:10;19.73;;;11.00;;
142;SDS011;63667;49.046;8.468;2023-02-28T09:29:37;26.37;;;11.40;;
142;SDS011;63667;49.046;8.468;2023-02-28T09:32:04;26.83;;;12.37;;
142;SDS011;63667;49.046;8.468;2023-02-28T09:34:32;29.97;;;12.13;;
142;SDS011;63667;49.046;8.468;2023-02-28T09:36:59;23.03;;;11.50;;
142;SDS011;63667;49.046;8.468;2023-02-28T09:39:27;26.47;;;11.53;;
142;SDS011;63667;49.046;8.468;2023-02-28T09:41:55;22.27;;;12.07;;
142;SDS011;63667;49.046;8.468;2023-02-28T09:46:54;22.63;;;10.93;;
142;SDS011;63667;49.046;8.468;2023-02-28T09:49:23;26.00;;;11.60;;
142;SDS011;63667;49.046;8.468;2023-02-28T09:52:12;22.83;;;10.97;;
142;SDS011;63667;49.046;8.468;2023-02-28T09:54:39;27.17;;;12.53;;
142;SDS011;63667;49.046;8.468;2023-02-28T09:57:08;23.90;;;11.40;;
142;SDS011;63667;49.046;8.468;2023-02-28T10:04:54;26.50;;;12.50;;
142;SDS011;63667;49.046;8.468;2023-02-28T10:09:59;24.53;;;12.03;;
142;SDS011;63667;49.046;8.468;2023-02-28T10:12:29;28.80;;;12.40;;
142;SDS011;63667;49.046;8.468;2023-02-28T10:14:57;24.77;;;12.37;;
142;SDS011;63667;49.046;8.468;2023-02-28T10:17:26;24.63;;;12.13;;
142;SDS011;63667;49.046;8.468;2023-02-28T10:20:14;27.90;;;12.23;;
142;SDS011;63667;49.046;8.468;2023-02-28T10:25:22;31.43;;;12.23;;
142;SDS011;63667;49.046;8.468;2023-02-28T10:27:49;25.03;;;11.80;;
142;SDS011;63667;49.046;8.468;2023-02-28T10:30:16;23.03;;;12.10;;
142;SDS011;63667;49.046;8.468;2023-02-28T10:32:49;26.03;;;12.67;;
142;SDS011;63667;49.046;8.468;2023-02-28T10:35:17;27.57;;;12.53;;
142;SDS011;63667;49.046;8.468;2023-02-28T10:37:46;33.20;;;11.90;;
142;SDS011;63667;49.046;8.468;2023-02-28T10:45:25;27.10;;;11.67;;
142;SDS011;63667;49.046;8.468;2023-02-28T10:48:00;25.70;;;11.23;;
142;SDS011;63667;49.046;8.468;2023-02-28T10:50:44;28.13;;;12.57;;
142;SDS011;63667;49.046;8.468;2023-02-28T10:53:28;25.53;;;12.37;;
142;SDS011;63667;49.046;8.468;2023-02-28T10:56:05;42.13;;;13.60;;
142;SDS011;63667;49.046;8.468;2023-02-28T11:01:16;30.27;;;13.17;;
142;SDS011;63667;49.046;8.468;2023-02-28T11:03:44;29.90;;;12.90;;
142;SDS011;63667;49.046;8.468;2023-02-28T11:06:18;25.33;;;12.80;;
142;SDS011;63667;49.046;8.468;2023-02-28T11:08:50;32.93;;;13.77;;
142;SDS011;63667;49.046;8.468;2023-02-28T11:11:17;25.43;;;12.43;;
142;SDS011;63667;49.046;8.468;2023-02-28T11:13:45;32.30;;;12.63;;
142;SDS011;63667;49.046;8.468;2023-02-28T11:16:14;31.43;;;13.03;;
142;SDS011;63667;49.046;8.468;2023-02-28T11:21:08;27.77;;;12.30;;
142;SDS011;63667;49.046;8.468;2023-02-28T11:23:36;28.90;;;13.07;;
142;SDS011;63667;49.046;8.468;2023-02-28T11:26:07;29.40;;;12.83;;
142;SDS011;63667;49.046;8.468;2023-02-28T11:28:38;27.10;;;13.37;;
142;SDS011;63667;49.046;8.468;2023-02-28T11:36:26;25.97;;;12.77;;
142;SDS011;63667;49.046;8.468;2023-02-28T11:38:56;21.33;;;12.03;;
142;SDS011;63667;49.046;8.468;2023-02-28T11:50:04;28.03;;;13.60;;
142;SDS011;63667;49.046;8.468;2023-02-28T11:52:43;26.77;;;13.47;;
142;SDS011;63667;49.046;8.468;2023-02-28T11:55:14;25.90;;;12.47;;
142;SDS011;63667;49.046;8.468;2023-02-28T11:57:51;24.33;;;13.07;;
142;SDS011;63667;49.046;8.468;2023-02-28T12:07:51;28.53;;;13.60;;
142;SDS011;63667;49.046;8.468;2023-02-28T12:20:38;27.07;;;13.60;;
142;SDS011;63667;49.046;8.468;2023-02-28T12:25:46;26.77;;;13.90;;
142;SDS011;63667;49.046;8.468;2023-02-28T12:28:14;30.20;;;13.73;;
142;SDS011;63667;49.046;8.468;2023-02-28T12:31:01;29.00;;;13.47;;
142;SDS011;63667;49.046;8.468;2023-02-28T12:33:34;28.87;;;14.30;;
142;SDS011;63667;49.046;8.468;2023-02-28T12:36:05;26.83;;;13.43;;
142;SDS011;63667;49.046;8.468;2023-02-28T12:38:41;25.53;;;13.30;;
142;SDS011;63667;49.046;8.468;2023-02-28T12:41:16;34.83;;;13.03;;
142;SDS011;63667;49.046;8.468;2023-02-28T12:46:41;26.30;;;12.80;;
142;SDS011;63667;49.046;8.468;2023-02-28T12:49:13;23.10;;;13.30;;
142;SDS011;63667;49.046;8.468;2023-02-28T12:51:43;30.00;;;14.10;;
142;SDS011;63667;49.046;8.468;2023-02-28T12:56:42;27.67;;;13.47;;
142;SDS011;63667;49.046;8.468;2023-02-28T12:59:36;25.83;;;13.33;;
142;SDS011;63667;49.046;8.468;2023-02-28T13:09:37;25.53;;;12.93;;
142;SDS011;63667;49.046;8.468;2023-02-28T13:12:14;26.23;;;13.20;;
142;SDS011;63667;49.046;8.468;2023-02-28T13:14:42;38.90;;;18.80;;
142;SDS011;63667;49.046;8.468;2023-02-28T13:17:10;27.73;;;13.40;;
142;SDS011;63667;49.046;8.468;2023-02-28T13:19:42;23.00;;;13.83;;
142;SDS011;63667;49.046;8.468;2023-02-28T13:22:17;26.80;;;14.07;;
142;SDS011;63667;49.046;8.468;2023-02-28T13:29:43;26.97;;;13.60;;
142;SDS011;63667;49.046;8.468;2023-02-28T13:34:38;25.00;;;12.90;;
142;SDS011;63667;49.046;8.468;2023-02-28T13:39:49;29.27;;;15.37;;
142;SDS011;63667;49.046;8.468;2023-02-28T13:47:39;29.37;;;14.73;;
142;SDS011;63667;49.046;8.468;2023-02-28T13:50:30;28.60;;;14.50;;
142;SDS011;63667;49.046;8.468;2023-02-28T13:53:14;30.77;;;16.13;;
142;SDS011;63667;49.046;8.468;2023-02-28T14:04:14;25.73;;;14.23;;
142;SDS011;63667;49.046;8.468;2023-02-28T14:06:51;27.63;;;14.60;;
142;SDS011;63667;49.046;8.468;2023-02-28T14:09:39;27.53;;;14.80;;
142;SDS011;63667;49.046;8.468;2023-02-28T14:14:53;26.87;;;14.43;;
142;SDS011;63667;49.046;8.468;2023-02-28T14:17:22;28.10;;;15.50;;
142;SDS011;63667;49.046;8.468;2023-02-28T14:19:50;27.97;;;15.40;;
142;SDS011;63667;49.046;8.468;2023-02-28T14:32:41;28.37;;;15.67;;
142;SDS011;63667;49.046;8.468;2023-02-28T14:37:43;36.13;;;15.00;;
142;SDS011;63667;49.046;8.468;2023-02-28T14:40:15;28.10;;;14.97;;
142;SDS011;63667;49.046;8.468;2023-02-28T14:42:47;32.07;;;15.10;;
142;SDS011;63667;49.046;8.468;2023-02-28T14:45:17;27.10;;;15.03;;
142;SDS011;63667;49.046;8.468;2023-02-28T14:47:45;30.37;;;15.77;;
142;SDS011;63667;49.046;8.468;2023-02-28T14:50:22;27.00;;;15.20;;
142;SDS011;63667;49.046;8.468;2023-02-28T14:53:10;29.77;;;15.33;;
142;SDS011;63667;49.046;8.468;2023-02-28T14:55:44;30.00;;;16.13;;
142;SDS011;63667;49.046;8.468;2023-02-28T15:00:51;29.40;;;15.80;;
142;SDS011;63667;49.046;8.468;2023-02-28T15:03:23;30.67;;;15.47;;
142;SDS011;63667;49.046;8.468;2023-02-28T15:05:54;31.27;;;15.53;;
142;SDS011;63667;49.046;8.468;2023-02-28T15:08:21;30.50;;;14.73;;
142;SDS011;63667;49.046;8.468;2023-02-28T15:10:56;29.53;;;15.50;;
142;SDS011;63667;49.046;8.468;2023-02-28T15:13:23;29.20;;;15.40;;
142;SDS011;63667;49.046;8.468;2023-02-28T15:15:54;27.60;;;14.77;;
142;SDS011;63667;49.046;8.468;2023-02-28T15:20:55;28.50;;;14.90;;
142;SDS011;63667;49.046;8.468;2023-02-28T15:23:23;34.10;;;15.43;;
142;SDS011;63667;49.046;8.468;2023-02-28T15:25:51;28.00;;;14.50;;
142;SDS011;63667;49.046;8.468;2023-02-28T15:28:20;29.60;;;15.50;;
142;SDS011;63667;49.046;8.468;2023-02-28T15:30:58;34.30;;;16.70;;
142;SDS011;63667;49.046;8.468;2023-02-28T15:33:29;41.23;;;15.80;;
142;SDS011;63667;49.046;8.468;2023-02-28T15:36:13;29.10;;;15.17;;
142;SDS011;63667;49.046;8.468;2023-02-28T15:38:45;32.37;;;14.80;;
142;SDS011;63667;49.046;8.468;2023-02-28T15:46:38;33.90;;;15.83;;
142;SDS011;63667;49.046;8.468;2023-02-28T15:49:12;31.30;;;14.80;;
142;SDS011;63667;49.046;8.468;2023-02-28T15:51:44;29.63;;;15.83;;
142;SDS011;63667;49.046;8.468;2023-02-28T15:54:12;32.43;;;16.40;;
142;SDS011;63667;49.046;8.468;2023-02-28T15:56:45;41.17;;;16.80;;
142;SDS011;63667;49.046;8.468;2023-02-28T15:59:14;34.03;;;15.10;;
142;SDS011;63667;49.046;8.468;2023-02-28T16:01:42;29.67;;;14.90;;
142;SDS011;63667;49.046;8.468;2023-02-28T16:04:16;34.03;;;15.53;;
142;SDS011;63667;49.046;8.468;2023-02-28T16:09:25;28.03;;;14.20;;
142;SDS011;63667;49.046;8.468;2023-02-28T16:11:54;29.97;;;14.87;;
142;SDS011;63667;49.046;8.468;2023-02-28T16:14:25;33.30;;;15.80;;
142;SDS011;63667;49.046;8.468;2023-02-28T16:16:54;32.10;;;14.50;;
142;SDS011;63667;49.046;8.468;2023-02-28T16:19:22;28.37;;;14.47;;
142;SDS011;63667;49.046;8.468;2023-02-28T16:21:49;28.97;;;15.07;;
142;SDS011;63667;49.046;8.468;2023-02-28T16:24:17;35.37;;;16.57;;
142;SDS011;63667;49.046;8.468;2023-02-28T16:26:45;33.17;;;14.03;;
142;SDS011;63667;49.046;8.468;2023-02-28T16:29:33;33.50;;;15.80;;
142;SDS011;63667;49.046;8.468;2023-02-28T16:32:01;30.43;;;14.90;;
142;SDS011;63667;49.046;8.468;2023-02-28T16:34:28;34.53;;;16.00;;
142;SDS011;63667;49.046;8.468;2023-02-28T16:36:57;37.27;;;16.77;;
142;SDS011;63667;49.046;8.468;2023-02-28T16:39:24;33.90;;;15.70;;
142;SDS011;63667;49.046;8.468;2023-02-28T16:41:52;30.33;;;15.17;;
142;SDS011;63667;49.046;8.468;2023-02-28T16:44:33;34.23;;;15.50;;
142;SDS011;63667;49.046;8.468;2023-02-28T16:47:00;32.10;;;15.30;;
142;SDS011;63667;49.046;8.468;2023-02-28T16:49:27;30.50;;;15.80;;
142;SDS011;63667;49.046;8.468;2023-02-28T16:51:54;32.77;;;15.40;;
142;SDS011;63667;49.046;8.468;2023-02-28T16:54:22;29.67;;;14.93;;
142;SDS011;63667;49.046;8.468;2023-02-28T16:56:50;36.93;;;15.57;;
142;SDS011;63667;49.046;8.468;2023-02-28T16:59:19;32.80;;;15.30;;
142;SDS011;63667;49.046;8.468;2023-02-28T17:01:48;33.80;;;15.40;;
142;SDS011;63667;49.046;8.468;2023-02-28T17:04:15;37.60;;;17.57;;
142;SDS011;63667;49.046;8.468;2023-02-28T17:06:43;33.90;;;16.07;;
142;SDS011;63667;49.046;8.468;2023-02-28T17:09:17;30.63;;;14.90;;
142;SDS011;63667;49.046;8.468;2023-02-28T17:11:46;36.60;;;15.83;;
142;SDS011;63667;49.046;8.468;2023-02-28T17:14:13;33.03;;;16.43;;
142;SDS011;63667;49.046;8.468;2023-02-28T17:16:40;31.60;;;16.43;;
142;SDS011;63667;49.046;8.468;2023-02-28T17:19:12;30.80;;;15.77;;
142;SDS011;63667;49.046;8.468;2023-02-28T17:21:40;32.47;;;15.63;;
142;SDS011;63667;49.046;8.468;2023-02-28T17:24:08;36.57;;;16.43;;
142;SDS011;63667;49.046;8.468;2023-02-28T17:26:38;36.07;;;16.53;;
142;SDS011;63667;49.046;8.468;2023-02-28T17:29:09;40.03;;;18.70;;
142;SDS011;63667;49.046;8.468;2023-02-28T17:31:37;36.03;;;17.23;;
142;SDS011;63667;49.046;8.468;2023-02-28T17:34:05;42.20;;;19.07;;
142;SDS011;63667;49.046;8.468;2023-02-28T17:36:33;40.50;;;18.70;;
142;SDS011;63667;49.046;8.468;2023-02-28T17:39:00;42.93;;;18.47;;
142;SDS011;63667;49.046;8.468;2023-02-28T17:41:28;37.37;;;16.13;;